This demonstration page uses our WeatherBlox Daily Observations layout. Learn more.

39.92423, -83.80882

Hourly Observations for May 13, 2015

Temp ( °F °C ) Dew Point ( °F °C ) Humidity (%) Winds ( mph kmh ) Pressure ( in mb ) Visibility ( mi km ) Precip ( " mm )
12:56 am 00:56 Cloudy 53 11.6 44 6.6 72 72 W 6 9 30.26 1025 7 11.26538 0 0
1:56 am 01:56 Clear 50 10 42 5.5 74 74 WNW 7 11 30.26 1025 7 11.26538 0 0
2:56 am 02:56 Clear 47 8.3 41 5 80 80 WNW 5 7 30.26 1025 7 11.26538 0 0
3:56 am 03:56 Clear 46 7.7 41 5 83 83 W 5 7 30.28 1025 7 11.26538 0 0
4:56 am 04:56 Clear 45 7.2 41 5 86 86 W 6 9 30.3 1026 7 11.26538 0 0
5:56 am 05:56 Clear 44 6.6 41 5 90 90 NW 6 9 30.31 1026 7 11.26538 0 0
6:56 am 06:56 Sunny with Mist and Fog 44 6.6 42 5.5 93 93 WNW 6 9 30.34 1028 5 8.0467 0 0
7:56 am 07:56 Mostly Cloudy with Mist and Fog 47 8.3 44 6.6 89 89 WNW 7 11 30.37 1029 5 8.0467 0 0
8:56 am 08:56 Hazy 51 10.5 40 4.4 66 66 NNW 13 20 30.38 1029 6 9.65604 0 0
9:56 am 09:56 Mostly Cloudy with Haze 55 12.7 40 4.4 57 57 NW 13 20 30.4 1029 6 9.65604 0 0
10:56 am 10:56 Hazy 56 13.3 39 3.8 53 53 NNW 12 19 30.4 1030 6 9.65604 0 0
11:56 am 11:56 Mostly Cloudy with Haze 58 14.4 40 4.4 51 51 NNE 8 13 30.4 1030 6 9.65604 0 0
12:56 pm 12:56 Hazy 58 14.4 38 3.3 48 48 NW 10 17 30.41 1030 6 9.65604 0 0
2:56 pm 14:56 Hazy 63 17.2 43 6.1 48 48 NE 8 13 30.37 1028 5 8.0467 0 0
3:56 pm 15:56 Hazy 64 17.7 40 4.4 42 42 NW 7 11 30.37 1028 6 9.65604 0 0
4:56 pm 16:56 Hazy 66 18.8 42 5.5 42 42 N 10 17 30.35 1028 6 9.65604 0 0
5:56 pm 17:56 Hazy 65 18.3 42 5.5 43 43 N 8 13 30.36 1028 6 9.65604 0 0
6:56 pm 18:56 Hazy 65 18.3 42 5.5 43 43 NNE 8 13 30.36 1028 6 9.65604 0 0
7:56 pm 19:56 Hazy 61 16.1 43 6.1 52 52 NE 8 13 30.35 1028 6 9.65604 0 0
8:56 pm 20:56 Clear 53 11.6 42 5.5 66 66 NE 9 15 30.37 1028 7 11.26538 0 0
9:56 pm 21:56 Clear 52 11.1 41 5 66 66 NE 10 17 30.4 1029 7 11.26538 0 0
10:56 pm 22:56 Clear 50 10 41 5 71 71 ENE 12 19 30.42 1030 7 11.26538 0 0
11:56 pm 23:56 Clear 49 9.4 41 5 74 74 ENE 10 17 30.45 1031 7 11.26538 0 0

Powered by AerisWeather